Strum, Wisconsin
Current Conditions -  °F | °C
As of 4:56 AM on Thursday 27 Nov 2014 (Local Time) from KEAU Reporting Station
Clear Clear  
Wind Chill: -10°   Ceiling: Unl
Heat Index:   Visibility: 10mi
Dew Point: -4°   Wind: 8mph
Humidity: 73%   Direction: 340°NNW
Pressure: 30.4"   Gusts: NA
Location:  44.55°N, 91.39°W
Report Text: KEAU 271056Z AUTO 34007KT 10SM CLR M16/M20 A3040 RMK AO2 SLP316 T11611200
Loading
Personal Weather Stations






























Interactive Weather Map New forecast layout! Learn more

10-Day Weather Forecast

Advertisements
Track Severe Weather on mobile